sensor_id;sensor_type;location;lat;lon;timestamp;P1;durP1;ratioP1;P2;durP2;ratioP2
27796;SDS011;15177;50.844;4.412;2023-03-14T00:00:10;7.87;;;1.60;;
27796;SDS011;15177;50.844;4.412;2023-03-14T00:02:40;12.80;;;1.70;;
27796;SDS011;15177;50.844;4.412;2023-03-14T00:05:06;9.33;;;1.87;;
27796;SDS011;15177;50.844;4.412;2023-03-14T00:07:33;10.37;;;1.93;;
27796;SDS011;15177;50.844;4.412;2023-03-14T00:10:05;10.70;;;1.87;;
27796;SDS011;15177;50.844;4.412;2023-03-14T00:12:33;13.23;;;2.13;;
27796;SDS011;15177;50.844;4.412;2023-03-14T00:14:59;8.43;;;2.07;;
27796;SDS011;15177;50.844;4.412;2023-03-14T00:17:27;10.67;;;2.10;;
27796;SDS011;15177;50.844;4.412;2023-03-14T00:19:53;8.77;;;2.03;;
27796;SDS011;15177;50.844;4.412;2023-03-14T00:22:19;12.50;;;2.57;;
27796;SDS011;15177;50.844;4.412;2023-03-14T00:24:45;8.50;;;1.93;;
27796;SDS011;15177;50.844;4.412;2023-03-14T00:27:11;7.07;;;1.87;;
27796;SDS011;15177;50.844;4.412;2023-03-14T00:29:36;10.90;;;2.20;;
27796;SDS011;15177;50.844;4.412;2023-03-14T00:32:02;11.57;;;1.60;;
27796;SDS011;15177;50.844;4.412;2023-03-14T00:34:29;10.83;;;3.43;;
27796;SDS011;15177;50.844;4.412;2023-03-14T00:36:55;14.33;;;1.60;;
27796;SDS011;15177;50.844;4.412;2023-03-14T00:39:21;11.63;;;1.60;;
27796;SDS011;15177;50.844;4.412;2023-03-14T00:41:46;11.67;;;2.40;;
27796;SDS011;15177;50.844;4.412;2023-03-14T00:44:12;12.17;;;2.33;;
27796;SDS011;15177;50.844;4.412;2023-03-14T00:46:38;9.50;;;2.90;;
27796;SDS011;15177;50.844;4.412;2023-03-14T00:49:04;4.67;;;1.40;;
27796;SDS011;15177;50.844;4.412;2023-03-14T00:51:31;11.80;;;2.20;;
27796;SDS011;15177;50.844;4.412;2023-03-14T00:53:56;15.67;;;2.40;;
27796;SDS011;15177;50.844;4.412;2023-03-14T00:56:22;10.57;;;2.17;;
27796;SDS011;15177;50.844;4.412;2023-03-14T00:58:47;12.57;;;2.67;;
27796;SDS011;15177;50.844;4.412;2023-03-14T01:01:17;13.37;;;2.47;;
27796;SDS011;15177;50.844;4.412;2023-03-14T01:03:43;13.80;;;2.50;;
27796;SDS011;15177;50.844;4.412;2023-03-14T01:08:49;12.00;;;2.30;;
27796;SDS011;15177;50.844;4.412;2023-03-14T01:11:16;12.17;;;2.73;;
27796;SDS011;15177;50.844;4.412;2023-03-14T01:13:47;14.53;;;2.17;;
27796;SDS011;15177;50.844;4.412;2023-03-14T01:16:14;16.40;;;2.43;;
27796;SDS011;15177;50.844;4.412;2023-03-14T01:18:42;17.23;;;2.50;;
27796;SDS011;15177;50.844;4.412;2023-03-14T01:21:11;15.87;;;2.13;;
27796;SDS011;15177;50.844;4.412;2023-03-14T01:23:38;15.47;;;2.37;;
27796;SDS011;15177;50.844;4.412;2023-03-14T01:26:04;12.40;;;2.10;;
27796;SDS011;15177;50.844;4.412;2023-03-14T01:28:34;10.37;;;2.70;;
27796;SDS011;15177;50.844;4.412;2023-03-14T01:31:03;12.07;;;2.47;;
27796;SDS011;15177;50.844;4.412;2023-03-14T01:33:30;15.73;;;2.13;;
27796;SDS011;15177;50.844;4.412;2023-03-14T01:35:56;11.73;;;2.40;;
27796;SDS011;15177;50.844;4.412;2023-03-14T01:38:22;18.03;;;2.40;;
27796;SDS011;15177;50.844;4.412;2023-03-14T01:40:48;13.67;;;2.80;;
27796;SDS011;15177;50.844;4.412;2023-03-14T01:43:15;4.73;;;1.57;;
27796;SDS011;15177;50.844;4.412;2023-03-14T01:46:43;9.13;;;2.00;;
27796;SDS011;15177;50.844;4.412;2023-03-14T01:48:48;8.37;;;1.77;;
27796;SDS011;15177;50.844;4.412;2023-03-14T01:54:22;8.37;;;2.87;;
27796;SDS011;15177;50.844;4.412;2023-03-14T01:56:57;4.47;;;1.30;;
27796;SDS011;15177;50.844;4.412;2023-03-14T01:59:46;7.50;;;1.37;;
27796;SDS011;15177;50.844;4.412;2023-03-14T02:02:23;7.20;;;1.17;;
27796;SDS011;15177;50.844;4.412;2023-03-14T02:04:51;7.43;;;1.07;;
27796;SDS011;15177;50.844;4.412;2023-03-14T02:07:22;1.40;;;0.80;;
27796;SDS011;15177;50.844;4.412;2023-03-14T02:09:58;3.33;;;0.80;;
27796;SDS011;15177;50.844;4.412;2023-03-14T02:12:26;8.20;;;1.30;;
27796;SDS011;15177;50.844;4.412;2023-03-14T02:14:52;6.23;;;1.00;;
27796;SDS011;15177;50.844;4.412;2023-03-14T02:17:18;4.97;;;0.90;;
27796;SDS011;15177;50.844;4.412;2023-03-14T02:22:37;5.73;;;1.07;;
27796;SDS011;15177;50.844;4.412;2023-03-14T02:25:08;6.87;;;1.27;;
27796;SDS011;15177;50.844;4.412;2023-03-14T02:28:09;4.00;;;1.03;;
27796;SDS011;15177;50.844;4.412;2023-03-14T02:30:36;3.43;;;1.10;;
27796;SDS011;15177;50.844;4.412;2023-03-14T02:33:04;5.37;;;1.10;;
27796;SDS011;15177;50.844;4.412;2023-03-14T02:35:39;5.60;;;1.10;;
27796;SDS011;15177;50.844;4.412;2023-03-14T02:40:40;6.00;;;1.10;;
27796;SDS011;15177;50.844;4.412;2023-03-14T02:43:05;6.50;;;1.30;;
27796;SDS011;15177;50.844;4.412;2023-03-14T02:48:04;7.53;;;1.73;;
27796;SDS011;15177;50.844;4.412;2023-03-14T02:50:37;11.43;;;2.53;;
27796;SDS011;15177;50.844;4.412;2023-03-14T02:53:03;10.27;;;3.17;;
27796;SDS011;15177;50.844;4.412;2023-03-14T02:55:29;14.13;;;3.30;;
27796;SDS011;15177;50.844;4.412;2023-03-14T02:57:56;11.73;;;3.37;;
27796;SDS011;15177;50.844;4.412;2023-03-14T03:00:22;13.83;;;3.73;;
27796;SDS011;15177;50.844;4.412;2023-03-14T03:02:48;10.67;;;3.40;;
27796;SDS011;15177;50.844;4.412;2023-03-14T03:05:14;10.97;;;3.13;;
27796;SDS011;15177;50.844;4.412;2023-03-14T03:07:40;13.77;;;2.80;;
27796;SDS011;15177;50.844;4.412;2023-03-14T03:10:07;14.17;;;3.23;;
27796;SDS011;15177;50.844;4.412;2023-03-14T03:12:33;15.70;;;3.63;;
27796;SDS011;15177;50.844;4.412;2023-03-14T03:15:00;14.50;;;3.20;;
27796;SDS011;15177;50.844;4.412;2023-03-14T03:17:27;15.50;;;3.63;;
27796;SDS011;15177;50.844;4.412;2023-03-14T03:19:53;11.60;;;3.00;;
27796;SDS011;15177;50.844;4.412;2023-03-14T03:22:18;16.07;;;3.30;;
27796;SDS011;15177;50.844;4.412;2023-03-14T03:24:44;12.87;;;2.83;;
27796;SDS011;15177;50.844;4.412;2023-03-14T03:27:09;12.83;;;2.73;;
27796;SDS011;15177;50.844;4.412;2023-03-14T03:29:35;12.83;;;3.47;;
27796;SDS011;15177;50.844;4.412;2023-03-14T03:32:01;15.27;;;3.53;;
27796;SDS011;15177;50.844;4.412;2023-03-14T03:34:27;13.93;;;4.53;;
27796;SDS011;15177;50.844;4.412;2023-03-14T03:36:55;16.93;;;4.00;;
27796;SDS011;15177;50.844;4.412;2023-03-14T03:39:22;21.30;;;4.03;;
27796;SDS011;15177;50.844;4.412;2023-03-14T03:41:47;12.57;;;4.13;;
27796;SDS011;15177;50.844;4.412;2023-03-14T03:44:13;16.73;;;4.33;;
27796;SDS011;15177;50.844;4.412;2023-03-14T03:46:38;17.00;;;6.03;;
27796;SDS011;15177;50.844;4.412;2023-03-14T03:49:04;14.10;;;4.90;;
27796;SDS011;15177;50.844;4.412;2023-03-14T03:51:32;14.93;;;4.43;;
27796;SDS011;15177;50.844;4.412;2023-03-14T03:53:58;13.27;;;3.80;;
27796;SDS011;15177;50.844;4.412;2023-03-14T03:56:25;9.73;;;3.13;;
27796;SDS011;15177;50.844;4.412;2023-03-14T03:58:52;10.97;;;3.20;;
27796;SDS011;15177;50.844;4.412;2023-03-14T04:01:17;13.23;;;3.50;;
27796;SDS011;15177;50.844;4.412;2023-03-14T04:03:43;9.27;;;2.90;;
27796;SDS011;15177;50.844;4.412;2023-03-14T04:06:10;14.43;;;3.57;;
27796;SDS011;15177;50.844;4.412;2023-03-14T04:08:37;10.10;;;3.43;;
27796;SDS011;15177;50.844;4.412;2023-03-14T04:11:04;10.50;;;3.33;;
27796;SDS011;15177;50.844;4.412;2023-03-14T04:13:30;12.70;;;4.03;;
27796;SDS011;15177;50.844;4.412;2023-03-14T04:15:56;12.13;;;4.53;;
27796;SDS011;15177;50.844;4.412;2023-03-14T04:18:22;7.33;;;4.07;;
27796;SDS011;15177;50.844;4.412;2023-03-14T04:20:55;12.50;;;5.07;;
27796;SDS011;15177;50.844;4.412;2023-03-14T04:23:22;16.33;;;5.77;;
27796;SDS011;15177;50.844;4.412;2023-03-14T04:25:52;11.70;;;5.07;;
27796;SDS011;15177;50.844;4.412;2023-03-14T04:28:19;14.77;;;4.57;;
27796;SDS011;15177;50.844;4.412;2023-03-14T04:30:44;10.67;;;4.73;;
27796;SDS011;15177;50.844;4.412;2023-03-14T04:33:10;13.77;;;5.03;;
27796;SDS011;15177;50.844;4.412;2023-03-14T04:35:41;13.27;;;4.77;;
27796;SDS011;15177;50.844;4.412;2023-03-14T04:38:11;11.33;;;5.10;;
27796;SDS011;15177;50.844;4.412;2023-03-14T04:40:38;12.10;;;5.03;;
27796;SDS011;15177;50.844;4.412;2023-03-14T04:43:04;11.30;;;5.23;;
27796;SDS011;15177;50.844;4.412;2023-03-14T04:45:30;11.30;;;5.37;;
27796;SDS011;15177;50.844;4.412;2023-03-14T04:47:55;7.73;;;4.80;;
27796;SDS011;15177;50.844;4.412;2023-03-14T04:50:21;17.10;;;5.57;;
27796;SDS011;15177;50.844;4.412;2023-03-14T04:52:47;11.83;;;5.93;;
27796;SDS011;15177;50.844;4.412;2023-03-14T04:55:13;11.50;;;5.10;;
27796;SDS011;15177;50.844;4.412;2023-03-14T04:57:38;9.00;;;4.37;;
27796;SDS011;15177;50.844;4.412;2023-03-14T05:00:04;13.63;;;6.13;;
27796;SDS011;15177;50.844;4.412;2023-03-14T05:02:34;9.00;;;5.10;;
27796;SDS011;15177;50.844;4.412;2023-03-14T05:05:00;16.10;;;5.37;;
27796;SDS011;15177;50.844;4.412;2023-03-14T05:07:26;6.97;;;4.33;;
27796;SDS011;15177;50.844;4.412;2023-03-14T05:09:52;10.43;;;4.93;;
27796;SDS011;15177;50.844;4.412;2023-03-14T05:12:18;10.83;;;5.07;;
27796;SDS011;15177;50.844;4.412;2023-03-14T05:14:44;7.13;;;3.57;;
27796;SDS011;15177;50.844;4.412;2023-03-14T05:17:10;10.47;;;4.03;;
27796;SDS011;15177;50.844;4.412;2023-03-14T05:19:39;6.40;;;4.43;;
27796;SDS011;15177;50.844;4.412;2023-03-14T05:22:05;7.77;;;3.37;;
27796;SDS011;15177;50.844;4.412;2023-03-14T05:24:31;15.23;;;3.43;;
27796;SDS011;15177;50.844;4.412;2023-03-14T05:26:57;6.93;;;3.03;;
27796;SDS011;15177;50.844;4.412;2023-03-14T05:29:22;6.23;;;3.33;;
27796;SDS011;15177;50.844;4.412;2023-03-14T05:31:48;5.90;;;2.97;;
27796;SDS011;15177;50.844;4.412;2023-03-14T05:34:14;5.03;;;2.60;;
27796;SDS011;15177;50.844;4.412;2023-03-14T05:36:40;4.83;;;2.47;;
27796;SDS011;15177;50.844;4.412;2023-03-14T05:39:06;6.10;;;2.67;;
27796;SDS011;15177;50.844;4.412;2023-03-14T05:41:32;8.40;;;2.80;;
27796;SDS011;15177;50.844;4.412;2023-03-14T05:43:58;5.50;;;2.67;;
27796;SDS011;15177;50.844;4.412;2023-03-14T05:46:24;5.93;;;3.10;;
27796;SDS011;15177;50.844;4.412;2023-03-14T05:48:50;6.43;;;3.60;;
27796;SDS011;15177;50.844;4.412;2023-03-14T05:51:15;7.50;;;3.60;;
27796;SDS011;15177;50.844;4.412;2023-03-14T05:53:41;4.53;;;3.20;;
27796;SDS011;15177;50.844;4.412;2023-03-14T05:56:07;8.43;;;3.53;;
27796;SDS011;15177;50.844;4.412;2023-03-14T05:58:33;7.00;;;3.50;;
27796;SDS011;15177;50.844;4.412;2023-03-14T06:01:03;5.60;;;3.20;;
27796;SDS011;15177;50.844;4.412;2023-03-14T06:03:30;4.50;;;3.07;;
27796;SDS011;15177;50.844;4.412;2023-03-14T06:05:56;6.43;;;3.47;;
27796;SDS011;15177;50.844;4.412;2023-03-14T06:08:22;7.93;;;2.93;;
27796;SDS011;15177;50.844;4.412;2023-03-14T06:10:48;7.47;;;2.93;;
27796;SDS011;15177;50.844;4.412;2023-03-14T06:13:13;4.77;;;2.77;;
27796;SDS011;15177;50.844;4.412;2023-03-14T06:15:40;8.80;;;3.47;;
27796;SDS011;15177;50.844;4.412;2023-03-14T06:18:06;3.57;;;2.43;;
27796;SDS011;15177;50.844;4.412;2023-03-14T06:20:32;4.77;;;3.03;;
27796;SDS011;15177;50.844;4.412;2023-03-14T06:22:58;7.43;;;2.87;;
27796;SDS011;15177;50.844;4.412;2023-03-14T06:25:24;5.90;;;3.20;;
27796;SDS011;15177;50.844;4.412;2023-03-14T06:27:50;6.00;;;3.00;;
27796;SDS011;15177;50.844;4.412;2023-03-14T06:30:16;6.50;;;3.80;;
27796;SDS011;15177;50.844;4.412;2023-03-14T06:32:41;7.47;;;3.20;;
27796;SDS011;15177;50.844;4.412;2023-03-14T06:35:07;7.13;;;3.30;;
27796;SDS011;15177;50.844;4.412;2023-03-14T06:37:33;5.03;;;2.93;;
27796;SDS011;15177;50.844;4.412;2023-03-14T06:39:59;4.33;;;2.73;;
27796;SDS011;15177;50.844;4.412;2023-03-14T06:42:25;5.67;;;2.90;;
27796;SDS011;15177;50.844;4.412;2023-03-14T06:44:51;8.77;;;3.00;;
27796;SDS011;15177;50.844;4.412;2023-03-14T06:47:18;5.40;;;3.33;;
27796;SDS011;15177;50.844;4.412;2023-03-14T06:49:43;5.63;;;2.63;;
27796;SDS011;15177;50.844;4.412;2023-03-14T06:52:09;8.93;;;3.17;;
27796;SDS011;15177;50.844;4.412;2023-03-14T06:54:35;7.13;;;3.07;;
27796;SDS011;15177;50.844;4.412;2023-03-14T06:57:00;5.20;;;2.90;;
27796;SDS011;15177;50.844;4.412;2023-03-14T06:59:26;5.23;;;2.80;;
27796;SDS011;15177;50.844;4.412;2023-03-14T07:01:52;4.93;;;2.80;;
27796;SDS011;15177;50.844;4.412;2023-03-14T07:04:19;6.40;;;2.63;;
27796;SDS011;15177;50.844;4.412;2023-03-14T07:06:44;7.43;;;2.60;;
27796;SDS011;15177;50.844;4.412;2023-03-14T07:09:11;7.23;;;3.07;;
27796;SDS011;15177;50.844;4.412;2023-03-14T07:11:37;5.07;;;3.17;;
27796;SDS011;15177;50.844;4.412;2023-03-14T07:14:03;5.93;;;2.73;;
27796;SDS011;15177;50.844;4.412;2023-03-14T07:16:29;4.13;;;2.40;;
27796;SDS011;15177;50.844;4.412;2023-03-14T07:18:58;7.60;;;2.27;;
27796;SDS011;15177;50.844;4.412;2023-03-14T07:21:27;7.70;;;2.53;;
27796;SDS011;15177;50.844;4.412;2023-03-14T07:23:54;5.30;;;2.90;;
27796;SDS011;15177;50.844;4.412;2023-03-14T07:26:21;7.43;;;2.10;;
27796;SDS011;15177;50.844;4.412;2023-03-14T07:28:48;8.50;;;2.13;;
27796;SDS011;15177;50.844;4.412;2023-03-14T07:31:14;10.17;;;2.13;;
27796;SDS011;15177;50.844;4.412;2023-03-14T07:33:39;3.90;;;2.17;;
27796;SDS011;15177;50.844;4.412;2023-03-14T07:36:08;8.93;;;2.50;;
27796;SDS011;15177;50.844;4.412;2023-03-14T07:38:35;6.90;;;1.60;;
27796;SDS011;15177;50.844;4.412;2023-03-14T07:41:02;6.10;;;2.40;;
27796;SDS011;15177;50.844;4.412;2023-03-14T07:43:31;5.53;;;2.20;;
27796;SDS011;15177;50.844;4.412;2023-03-14T07:45:59;5.40;;;2.17;;
27796;SDS011;15177;50.844;4.412;2023-03-14T07:48:28;7.30;;;2.60;;
27796;SDS011;15177;50.844;4.412;2023-03-14T07:50:55;8.53;;;2.80;;
27796;SDS011;15177;50.844;4.412;2023-03-14T07:53:23;8.23;;;2.60;;
27796;SDS011;15177;50.844;4.412;2023-03-14T07:55:55;7.83;;;2.53;;
27796;SDS011;15177;50.844;4.412;2023-03-14T07:58:21;5.33;;;2.60;;
27796;SDS011;15177;50.844;4.412;2023-03-14T08:00:50;7.30;;;3.57;;
27796;SDS011;15177;50.844;4.412;2023-03-14T08:03:21;7.43;;;3.83;;
27796;SDS011;15177;50.844;4.412;2023-03-14T08:06:11;12.43;;;4.50;;
27796;SDS011;15177;50.844;4.412;2023-03-14T08:08:42;7.80;;;3.93;;
27796;SDS011;15177;50.844;4.412;2023-03-14T08:11:09;6.87;;;4.37;;
27796;SDS011;15177;50.844;4.412;2023-03-14T08:13:58;8.73;;;4.37;;
27796;SDS011;15177;50.844;4.412;2023-03-14T08:16:24;8.10;;;4.00;;
27796;SDS011;15177;50.844;4.412;2023-03-14T08:18:52;7.20;;;4.70;;
27796;SDS011;15177;50.844;4.412;2023-03-14T08:21:17;7.70;;;4.13;;
27796;SDS011;15177;50.844;4.412;2023-03-14T08:23:45;7.27;;;3.90;;
27796;SDS011;15177;50.844;4.412;2023-03-14T08:26:11;5.73;;;3.43;;
27796;SDS011;15177;50.844;4.412;2023-03-14T08:28:37;6.77;;;3.77;;
27796;SDS011;15177;50.844;4.412;2023-03-14T08:31:03;6.73;;;3.57;;
27796;SDS011;15177;50.844;4.412;2023-03-14T08:33:33;6.27;;;3.17;;
27796;SDS011;15177;50.844;4.412;2023-03-14T08:36:02;4.77;;;2.40;;
27796;SDS011;15177;50.844;4.412;2023-03-14T08:38:30;5.07;;;2.53;;
27796;SDS011;15177;50.844;4.412;2023-03-14T08:41:03;5.70;;;2.30;;
27796;SDS011;15177;50.844;4.412;2023-03-14T08:43:31;9.37;;;2.90;;
27796;SDS011;15177;50.844;4.412;2023-03-14T08:45:57;7.37;;;2.63;;
27796;SDS011;15177;50.844;4.412;2023-03-14T08:48:33;4.27;;;2.53;;
27796;SDS011;15177;50.844;4.412;2023-03-14T08:51:09;6.63;;;2.63;;
27796;SDS011;15177;50.844;4.412;2023-03-14T08:53:39;7.77;;;3.23;;
27796;SDS011;15177;50.844;4.412;2023-03-14T08:56:06;8.10;;;3.03;;
27796;SDS011;15177;50.844;4.412;2023-03-14T08:58:34;4.60;;;3.13;;
27796;SDS011;15177;50.844;4.412;2023-03-14T09:01:04;5.67;;;3.40;;
27796;SDS011;15177;50.844;4.412;2023-03-14T09:03:33;14.23;;;3.43;;
27796;SDS011;15177;50.844;4.412;2023-03-14T09:06:01;9.13;;;4.03;;
27796;SDS011;15177;50.844;4.412;2023-03-14T09:08:28;6.10;;;2.93;;
27796;SDS011;15177;50.844;4.412;2023-03-14T09:10:54;6.40;;;3.63;;
27796;SDS011;15177;50.844;4.412;2023-03-14T09:13:25;7.27;;;3.03;;
27796;SDS011;15177;50.844;4.412;2023-03-14T09:15:54;12.17;;;3.20;;
27796;SDS011;15177;50.844;4.412;2023-03-14T09:18:21;4.93;;;2.93;;
27796;SDS011;15177;50.844;4.412;2023-03-14T09:20:49;9.80;;;3.90;;
27796;SDS011;15177;50.844;4.412;2023-03-14T09:23:15;6.37;;;2.90;;
27796;SDS011;15177;50.844;4.412;2023-03-14T09:25:41;7.40;;;3.20;;
27796;SDS011;15177;50.844;4.412;2023-03-14T09:28:06;7.90;;;3.67;;
27796;SDS011;15177;50.844;4.412;2023-03-14T09:30:34;9.17;;;3.53;;
27796;SDS011;15177;50.844;4.412;2023-03-14T09:33:01;15.20;;;3.13;;
27796;SDS011;15177;50.844;4.412;2023-03-14T09:35:28;13.80;;;3.40;;
27796;SDS011;15177;50.844;4.412;2023-03-14T09:37:55;9.30;;;2.60;;
27796;SDS011;15177;50.844;4.412;2023-03-14T09:40:21;13.40;;;3.17;;
27796;SDS011;15177;50.844;4.412;2023-03-14T09:42:52;14.37;;;3.40;;
27796;SDS011;15177;50.844;4.412;2023-03-14T09:48:12;14.20;;;3.17;;
27796;SDS011;15177;50.844;4.412;2023-03-14T09:50:56;7.97;;;2.73;;
27796;SDS011;15177;50.844;4.412;2023-03-14T09:53:26;9.03;;;3.00;;
27796;SDS011;15177;50.844;4.412;2023-03-14T09:56:03;11.37;;;2.90;;
27796;SDS011;15177;50.844;4.412;2023-03-14T09:59:02;9.07;;;2.37;;
27796;SDS011;15177;50.844;4.412;2023-03-14T10:01:37;12.53;;;2.97;;
27796;SDS011;15177;50.844;4.412;2023-03-14T10:04:15;5.97;;;2.90;;
27796;SDS011;15177;50.844;4.412;2023-03-14T10:06:49;8.97;;;3.03;;
27796;SDS011;15177;50.844;4.412;2023-03-14T10:09:18;11.90;;;2.60;;
27796;SDS011;15177;50.844;4.412;2023-03-14T10:11:56;11.97;;;2.80;;
27796;SDS011;15177;50.844;4.412;2023-03-14T10:14:33;9.00;;;3.40;;
27796;SDS011;15177;50.844;4.412;2023-03-14T10:17:07;11.30;;;3.60;;
27796;SDS011;15177;50.844;4.412;2023-03-14T10:19:35;10.20;;;3.23;;
27796;SDS011;15177;50.844;4.412;2023-03-14T10:22:03;12.70;;;3.03;;
27796;SDS011;15177;50.844;4.412;2023-03-14T10:24:32;13.60;;;3.27;;
27796;SDS011;15177;50.844;4.412;2023-03-14T10:27:00;7.17;;;3.00;;
27796;SDS011;15177;50.844;4.412;2023-03-14T10:29:31;10.00;;;2.27;;
27796;SDS011;15177;50.844;4.412;2023-03-14T10:36:58;7.60;;;2.57;;
27796;SDS011;15177;50.844;4.412;2023-03-14T10:39:33;7.60;;;2.23;;
27796;SDS011;15177;50.844;4.412;2023-03-14T10:44:51;8.43;;;2.07;;
27796;SDS011;15177;50.844;4.412;2023-03-14T10:47:32;11.57;;;2.70;;
27796;SDS011;15177;50.844;4.412;2023-03-14T10:50:44;7.27;;;2.30;;
27796;SDS011;15177;50.844;4.412;2023-03-14T10:52:49;8.83;;;2.93;;
27796;SDS011;15177;50.844;4.412;2023-03-14T10:55:17;7.17;;;2.17;;
27796;SDS011;15177;50.844;4.412;2023-03-14T10:57:42;6.67;;;1.97;;
27796;SDS011;15177;50.844;4.412;2023-03-14T11:00:13;9.10;;;2.47;;
27796;SDS011;15177;50.844;4.412;2023-03-14T11:05:25;12.60;;;2.63;;
27796;SDS011;15177;50.844;4.412;2023-03-14T11:08:21;8.23;;;2.13;;
27796;SDS011;15177;50.844;4.412;2023-03-14T11:11:19;6.87;;;2.03;;
27796;SDS011;15177;50.844;4.412;2023-03-14T11:14:02;7.07;;;2.07;;
27796;SDS011;15177;50.844;4.412;2023-03-14T11:19:40;5.30;;;1.53;;
27796;SDS011;15177;50.844;4.412;2023-03-14T11:32:42;4.37;;;1.20;;
27796;SDS011;15177;50.844;4.412;2023-03-14T11:35:27;4.40;;;1.13;;
27796;SDS011;15177;50.844;4.412;2023-03-14T11:38:19;3.83;;;1.40;;
27796;SDS011;15177;50.844;4.412;2023-03-14T11:40:58;2.80;;;1.20;;
27796;SDS011;15177;50.844;4.412;2023-03-14T11:43:38;1.33;;;0.80;;
27796;SDS011;15177;50.844;4.412;2023-03-14T11:46:10;1.70;;;1.07;;
27796;SDS011;15177;50.844;4.412;2023-03-14T11:48:40;5.27;;;1.33;;
27796;SDS011;15177;50.844;4.412;2023-03-14T11:51:15;1.87;;;0.90;;
27796;SDS011;15177;50.844;4.412;2023-03-14T11:53:59;2.57;;;0.90;;
27796;SDS011;15177;50.844;4.412;2023-03-14T11:59:11;2.33;;;1.10;;
27796;SDS011;15177;50.844;4.412;2023-03-14T12:02:00;3.67;;;1.40;;
27796;SDS011;15177;50.844;4.412;2023-03-14T12:04:36;3.13;;;0.90;;
27796;SDS011;15177;50.844;4.412;2023-03-14T12:07:19;2.90;;;1.20;;
27796;SDS011;15177;50.844;4.412;2023-03-14T12:09:50;3.33;;;1.30;;
27796;SDS011;15177;50.844;4.412;2023-03-14T12:12:43;1.80;;;0.90;;
27796;SDS011;15177;50.844;4.412;2023-03-14T12:15:21;4.03;;;1.00;;
27796;SDS011;15177;50.844;4.412;2023-03-14T12:17:54;3.77;;;1.30;;
27796;SDS011;15177;50.844;4.412;2023-03-14T12:20:24;3.20;;;1.10;;
27796;SDS011;15177;50.844;4.412;2023-03-14T12:22:52;2.60;;;1.10;;
27796;SDS011;15177;50.844;4.412;2023-03-14T12:25:27;3.40;;;1.20;;
27796;SDS011;15177;50.844;4.412;2023-03-14T12:30:42;2.07;;;1.23;;
27796;SDS011;15177;50.844;4.412;2023-03-14T12:35:39;2.63;;;1.40;;
27796;SDS011;15177;50.844;4.412;2023-03-14T12:43:42;2.27;;;1.40;;
27796;SDS011;15177;50.844;4.412;2023-03-14T12:46:14;3.90;;;1.63;;
27796;SDS011;15177;50.844;4.412;2023-03-14T12:48:44;3.87;;;1.90;;
27796;SDS011;15177;50.844;4.412;2023-03-14T12:51:17;6.03;;;2.00;;
27796;SDS011;15177;50.844;4.412;2023-03-14T12:56:56;9.23;;;2.10;;
27796;SDS011;15177;50.844;4.412;2023-03-14T12:59:36;5.90;;;1.93;;
27796;SDS011;15177;50.844;4.412;2023-03-14T13:04:34;6.20;;;1.73;;
27796;SDS011;15177;50.844;4.412;2023-03-14T13:07:11;4.03;;;1.63;;
27796;SDS011;15177;50.844;4.412;2023-03-14T13:12:40;11.03;;;2.27;;
27796;SDS011;15177;50.844;4.412;2023-03-14T13:18:10;3.17;;;1.47;;
27796;SDS011;15177;50.844;4.412;2023-03-14T13:20:50;6.03;;;1.97;;
27796;SDS011;15177;50.844;4.412;2023-03-14T13:23:22;3.03;;;1.70;;
27796;SDS011;15177;50.844;4.412;2023-03-14T13:25:49;9.27;;;2.33;;
27796;SDS011;15177;50.844;4.412;2023-03-14T13:28:16;2.93;;;2.20;;
27796;SDS011;15177;50.844;4.412;2023-03-14T13:30:43;10.53;;;3.13;;
27796;SDS011;15177;50.844;4.412;2023-03-14T13:33:11;15.30;;;2.70;;
27796;SDS011;15177;50.844;4.412;2023-03-14T13:35:43;19.67;;;3.67;;
27796;SDS011;15177;50.844;4.412;2023-03-14T13:38:30;12.43;;;3.27;;
27796;SDS011;15177;50.844;4.412;2023-03-14T13:40:58;10.10;;;2.70;;
27796;SDS011;15177;50.844;4.412;2023-03-14T13:43:30;21.23;;;3.10;;
27796;SDS011;15177;50.844;4.412;2023-03-14T13:46:25;12.03;;;3.97;;
27796;SDS011;15177;50.844;4.412;2023-03-14T13:48:52;11.10;;;3.43;;
27796;SDS011;15177;50.844;4.412;2023-03-14T13:51:24;14.20;;;3.17;;
27796;SDS011;15177;50.844;4.412;2023-03-14T13:53:57;21.40;;;3.70;;
27796;SDS011;15177;50.844;4.412;2023-03-14T13:56:31;22.57;;;4.73;;
27796;SDS011;15177;50.844;4.412;2023-03-14T13:58:59;16.90;;;3.43;;
27796;SDS011;15177;50.844;4.412;2023-03-14T14:01:35;15.47;;;3.30;;
27796;SDS011;15177;50.844;4.412;2023-03-14T14:04:06;20.27;;;6.60;;
27796;SDS011;15177;50.844;4.412;2023-03-14T14:06:37;24.93;;;4.70;;
27796;SDS011;15177;50.844;4.412;2023-03-14T14:09:16;21.77;;;3.73;;
27796;SDS011;15177;50.844;4.412;2023-03-14T14:11:56;19.50;;;4.10;;
27796;SDS011;15177;50.844;4.412;2023-03-14T14:14:37;17.37;;;3.20;;
27796;SDS011;15177;50.844;4.412;2023-03-14T14:20:29;24.27;;;3.67;;
27796;SDS011;15177;50.844;4.412;2023-03-14T14:23:00;20.60;;;3.60;;
27796;SDS011;15177;50.844;4.412;2023-03-14T14:25:31;22.20;;;3.33;;
27796;SDS011;15177;50.844;4.412;2023-03-14T14:27:57;15.63;;;3.53;;
27796;SDS011;15177;50.844;4.412;2023-03-14T14:30:25;18.87;;;3.30;;
27796;SDS011;15177;50.844;4.412;2023-03-14T14:36:02;18.13;;;3.47;;
27796;SDS011;15177;50.844;4.412;2023-03-14T14:38:28;13.60;;;3.47;;
27796;SDS011;15177;50.844;4.412;2023-03-14T14:40:58;13.27;;;2.60;;
27796;SDS011;15177;50.844;4.412;2023-03-14T14:43:27;24.90;;;3.57;;
27796;SDS011;15177;50.844;4.412;2023-03-14T14:45:55;13.67;;;2.37;;
27796;SDS011;15177;50.844;4.412;2023-03-14T14:48:29;18.47;;;4.93;;
27796;SDS011;15177;50.844;4.412;2023-03-14T14:51:01;9.27;;;2.17;;
27796;SDS011;15177;50.844;4.412;2023-03-14T14:56:00;18.00;;;2.33;;
27796;SDS011;15177;50.844;4.412;2023-03-14T14:58:35;6.93;;;1.37;;
27796;SDS011;15177;50.844;4.412;2023-03-14T15:01:07;8.23;;;1.40;;
27796;SDS011;15177;50.844;4.412;2023-03-14T15:03:41;4.23;;;0.83;;
27796;SDS011;15177;50.844;4.412;2023-03-14T15:06:15;3.23;;;0.87;;
27796;SDS011;15177;50.844;4.412;2023-03-14T15:08:45;3.27;;;1.00;;
27796;SDS011;15177;50.844;4.412;2023-03-14T15:11:21;2.03;;;0.50;;
27796;SDS011;15177;50.844;4.412;2023-03-14T15:13:48;1.73;;;0.70;;
27796;SDS011;15177;50.844;4.412;2023-03-14T15:16:27;3.70;;;0.57;;
27796;SDS011;15177;50.844;4.412;2023-03-14T15:18:55;2.93;;;0.70;;
27796;SDS011;15177;50.844;4.412;2023-03-14T15:21:22;3.83;;;0.90;;
27796;SDS011;15177;50.844;4.412;2023-03-14T15:23:49;4.20;;;0.77;;
27796;SDS011;15177;50.844;4.412;2023-03-14T15:26:25;7.03;;;0.80;;
27796;SDS011;15177;50.844;4.412;2023-03-14T15:28:54;4.50;;;0.83;;
27796;SDS011;15177;50.844;4.412;2023-03-14T15:31:27;3.63;;;1.70;;
27796;SDS011;15177;50.844;4.412;2023-03-14T15:33:52;2.77;;;1.20;;
27796;SDS011;15177;50.844;4.412;2023-03-14T15:38:48;1.67;;;0.67;;
27796;SDS011;15177;50.844;4.412;2023-03-14T15:41:16;10.37;;;3.47;;
27796;SDS011;15177;50.844;4.412;2023-03-14T15:43:43;4.63;;;1.20;;
27796;SDS011;15177;50.844;4.412;2023-03-14T15:46:09;3.27;;;1.13;;
27796;SDS011;15177;50.844;4.412;2023-03-14T15:48:35;4.60;;;1.10;;
27796;SDS011;15177;50.844;4.412;2023-03-14T15:51:02;2.80;;;0.83;;
27796;SDS011;15177;50.844;4.412;2023-03-14T15:53:29;5.33;;;0.97;;
27796;SDS011;15177;50.844;4.412;2023-03-14T15:55:56;2.97;;;1.07;;
27796;SDS011;15177;50.844;4.412;2023-03-14T15:58:22;5.57;;;1.10;;
27796;SDS011;15177;50.844;4.412;2023-03-14T16:00:49;8.90;;;1.30;;
27796;SDS011;15177;50.844;4.412;2023-03-14T16:03:16;2.60;;;0.93;;
27796;SDS011;15177;50.844;4.412;2023-03-14T16:05:42;2.27;;;1.20;;
27796;SDS011;15177;50.844;4.412;2023-03-14T16:08:08;3.07;;;1.03;;
27796;SDS011;15177;50.844;4.412;2023-03-14T16:10:35;3.97;;;1.00;;
27796;SDS011;15177;50.844;4.412;2023-03-14T16:13:03;3.47;;;1.10;;